Mount Pleasant, South Carolina
Current Conditions -  °F | °C
As of 1:55 PM on Thursday 23 Oct 2014 (Local Time) from KLRO Reporting Station
Clear Clear  
Wind Chill: 66°   Ceiling: Unl
Heat Index: 66°   Visibility: 10mi
Dew Point: 45°   Wind: 8mph
Humidity: 46%   Direction: 310°NW
Pressure: 30.02"   Gusts: NA
Location:  32.8°N, 79.89°W
Report Text: KLRO 231755Z AUTO 31007KT 020V360 10SM CLR 19/07 A3002 RMK AO2 PWINO PNO
Loading
Personal Weather Stations






























Interactive Weather Map
Tropical Storm Tracking
New forecast layout! Learn more

10-Day Weather Forecast

Advertisements
Track Severe Weather on mobile